sensor_id;sensor_type;location;lat;lon;timestamp;pressure;altitude;pressure_sealevel;temperature;humidity
21504;BME280;10913;51.992;9.228;2024-02-21T00:00:56;100889.38;;;9.02;100.00
21504;BME280;10913;51.992;9.228;2024-02-21T00:03:21;100892.88;;;9.02;100.00
21504;BME280;10913;51.992;9.228;2024-02-21T00:05:47;100890.25;;;8.99;100.00
21504;BME280;10913;51.992;9.228;2024-02-21T00:08:16;100877.06;;;8.99;100.00
21504;BME280;10913;51.992;9.228;2024-02-21T00:10:41;100883.22;;;8.98;100.00
21504;BME280;10913;51.992;9.228;2024-02-21T00:13:07;100878.81;;;9.00;100.00
21504;BME280;10913;51.992;9.228;2024-02-21T00:15:35;100875.28;;;8.99;100.00
21504;BME280;10913;51.992;9.228;2024-02-21T00:18:08;100860.38;;;8.97;100.00
21504;BME280;10913;51.992;9.228;2024-02-21T00:20:35;100855.97;;;8.97;100.00
21504;BME280;10913;51.992;9.228;2024-02-21T00:23:08;100858.59;;;8.96;100.00
21504;BME280;10913;51.992;9.228;2024-02-21T00:25:33;100859.44;;;8.93;100.00
21504;BME280;10913;51.992;9.228;2024-02-21T00:28:02;100849.78;;;8.94;100.00
21504;BME280;10913;51.992;9.228;2024-02-21T00:30:31;100847.09;;;8.88;100.00
21504;BME280;10913;51.992;9.228;2024-02-21T00:32:59;100845.31;;;8.87;100.00
21504;BME280;10913;51.992;9.228;2024-02-21T00:35:25;100827.72;;;8.84;100.00
21504;BME280;10913;51.992;9.228;2024-02-21T00:37:53;100837.41;;;8.87;100.00
21504;BME280;10913;51.992;9.228;2024-02-21T00:40:18;100822.47;;;8.86;100.00
21504;BME280;10913;51.992;9.228;2024-02-21T00:42:46;100826.88;;;8.87;100.00
21504;BME280;10913;51.992;9.228;2024-02-21T00:45:14;100822.47;;;8.86;100.00
21504;BME280;10913;51.992;9.228;2024-02-21T00:47:50;100821.59;;;8.84;100.00
21504;BME280;10913;51.992;9.228;2024-02-21T00:50:24;100810.13;;;8.80;100.00
21504;BME280;10913;51.992;9.228;2024-02-21T00:52:52;100806.63;;;8.81;100.00
21504;BME280;10913;51.992;9.228;2024-02-21T00:55:17;100811.00;;;8.81;100.00
21504;BME280;10913;51.992;9.228;2024-02-21T00:57:43;100804.88;;;8.82;100.00
21504;BME280;10913;51.992;9.228;2024-02-21T01:00:17;100803.09;;;8.79;100.00
21504;BME280;10913;51.992;9.228;2024-02-21T01:02:43;100789.91;;;8.76;100.00
21504;BME280;10913;51.992;9.228;2024-02-21T01:05:11;100795.22;;;8.78;100.00
21504;BME280;10913;51.992;9.228;2024-02-21T01:07:42;100785.53;;;8.77;100.00
21504;BME280;10913;51.992;9.228;2024-02-21T01:10:08;100789.94;;;8.78;100.00
21504;BME280;10913;51.992;9.228;2024-02-21T01:12:34;100784.69;;;8.82;100.00
21504;BME280;10913;51.992;9.228;2024-02-21T01:15:00;100791.72;;;8.85;100.00
21504;BME280;10913;51.992;9.228;2024-02-21T01:17:25;100789.09;;;8.83;100.00
21504;BME280;10913;51.992;9.228;2024-02-21T01:19:51;100794.41;;;8.88;100.00
21504;BME280;10913;51.992;9.228;2024-02-21T01:22:25;100788.25;;;8.89;100.00
21504;BME280;10913;51.992;9.228;2024-02-21T01:24:53;100791.78;;;8.89;100.00
21504;BME280;10913;51.992;9.228;2024-02-21T01:27:31;100797.06;;;8.91;100.00
21504;BME280;10913;51.992;9.228;2024-02-21T01:29:56;100784.75;;;8.90;100.00
21504;BME280;10913;51.992;9.228;2024-02-21T01:32:24;100775.09;;;8.89;100.00
21504;BME280;10913;51.992;9.228;2024-02-21T01:37:37;100768.94;;;8.90;100.00
21504;BME280;10913;51.992;9.228;2024-02-21T01:40:03;100774.25;;;8.93;100.00
21504;BME280;10913;51.992;9.228;2024-02-21T01:42:29;100772.47;;;8.92;100.00
21504;BME280;10913;51.992;9.228;2024-02-21T01:44:54;100773.38;;;8.95;100.00
21504;BME280;10913;51.992;9.228;2024-02-21T01:47:19;100789.19;;;8.94;100.00
21504;BME280;10913;51.992;9.228;2024-02-21T01:49:45;100785.69;;;8.96;100.00
21504;BME280;10913;51.992;9.228;2024-02-21T01:52:15;100783.97;;;8.98;100.00
21504;BME280;10913;51.992;9.228;2024-02-21T01:54:47;100773.41;;;9.00;100.00
21504;BME280;10913;51.992;9.228;2024-02-21T01:57:13;100766.38;;;9.01;100.00
21504;BME280;10913;51.992;9.228;2024-02-21T01:59:39;100775.16;;;8.99;100.00
21504;BME280;10913;51.992;9.228;2024-02-21T02:02:05;100754.97;;;9.02;100.00
21504;BME280;10913;51.992;9.228;2024-02-21T02:04:34;100758.50;;;9.05;100.00
21504;BME280;10913;51.992;9.228;2024-02-21T02:07:02;100766.41;;;9.05;100.00
21504;BME280;10913;51.992;9.228;2024-02-21T02:09:29;100762.91;;;9.05;100.00
21504;BME280;10913;51.992;9.228;2024-02-21T02:11:54;100748.84;;;9.06;100.00
21504;BME280;10913;51.992;9.228;2024-02-21T02:14:20;100753.22;;;9.05;100.00
21504;BME280;10913;51.992;9.228;2024-02-21T02:16:48;100749.72;;;9.06;100.00
21504;BME280;10913;51.992;9.228;2024-02-21T02:19:14;100748.84;;;9.06;100.00
21504;BME280;10913;51.992;9.228;2024-02-21T02:21:45;100735.66;;;9.04;100.00
21504;BME280;10913;51.992;9.228;2024-02-21T02:24:11;100725.09;;;9.01;100.00
21504;BME280;10913;51.992;9.228;2024-02-21T02:26:39;100733.03;;;9.04;100.00
21504;BME280;10913;51.992;9.228;2024-02-21T02:29:05;100728.63;;;9.03;100.00
21504;BME280;10913;51.992;9.228;2024-02-21T02:31:42;100716.31;;;9.02;100.00
21504;BME280;10913;51.992;9.228;2024-02-21T02:34:14;100719.84;;;9.03;100.00
21504;BME280;10913;51.992;9.228;2024-02-21T02:36:45;100710.16;;;8.97;100.00
21504;BME280;10913;51.992;9.228;2024-02-21T02:39:11;100712.81;;;9.03;100.00
21504;BME280;10913;51.992;9.228;2024-02-21T02:41:36;100710.16;;;9.02;100.00
21504;BME280;10913;51.992;9.228;2024-02-21T02:44:02;100706.66;;;9.03;100.00
21504;BME280;10913;51.992;9.228;2024-02-21T02:46:33;100718.97;;;9.05;100.00
21504;BME280;10913;51.992;9.228;2024-02-21T02:48:59;100704.94;;;9.08;100.00
21504;BME280;10913;51.992;9.228;2024-02-21T02:51:24;100698.81;;;9.10;100.00
21504;BME280;10913;51.992;9.228;2024-02-21T02:53:55;100704.03;;;9.06;100.00
21504;BME280;10913;51.992;9.228;2024-02-21T02:56:28;100701.41;;;9.07;100.00
21504;BME280;10913;51.992;9.228;2024-02-21T02:58:54;100715.47;;;9.06;100.00
21504;BME280;10913;51.992;9.228;2024-02-21T03:01:19;100700.53;;;9.05;100.00
21504;BME280;10913;51.992;9.228;2024-02-21T03:03:45;100697.03;;;9.06;100.00
21504;BME280;10913;51.992;9.228;2024-02-21T03:06:12;100688.25;;;9.07;100.00
21504;BME280;10913;51.992;9.228;2024-02-21T03:08:38;100683.00;;;9.10;100.00
21504;BME280;10913;51.992;9.228;2024-02-21T03:11:05;100680.34;;;9.07;100.00
21504;BME280;10913;51.992;9.228;2024-02-21T03:13:30;100681.22;;;9.06;100.00
21504;BME280;10913;51.992;9.228;2024-02-21T03:15:56;100669.78;;;9.07;100.00
21504;BME280;10913;51.992;9.228;2024-02-21T03:18:21;100661.00;;;9.08;100.00
21504;BME280;10913;51.992;9.228;2024-02-21T03:20:46;100668.06;;;9.09;100.00
21504;BME280;10913;51.992;9.228;2024-02-21T03:23:12;100663.66;;;9.08;100.00
21504;BME280;10913;51.992;9.228;2024-02-21T03:25:39;100659.28;;;9.10;100.00
21504;BME280;10913;51.992;9.228;2024-02-21T03:28:04;100654.88;;;9.09;100.00
21504;BME280;10913;51.992;9.228;2024-02-21T03:30:48;100652.25;;;9.09;100.00
21504;BME280;10913;51.992;9.228;2024-02-21T03:33:13;100629.41;;;9.10;100.00
21504;BME280;10913;51.992;9.228;2024-02-21T03:35:41;100634.66;;;9.10;100.00
21504;BME280;10913;51.992;9.228;2024-02-21T03:38:06;100631.16;;;9.11;100.00
21504;BME280;10913;51.992;9.228;2024-02-21T03:40:32;100628.53;;;9.11;100.00
21504;BME280;10913;51.992;9.228;2024-02-21T03:50:41;100620.59;;;9.06;100.00
21504;BME280;10913;51.992;9.228;2024-02-21T03:53:07;100610.91;;;9.05;100.00
21504;BME280;10913;51.992;9.228;2024-02-21T03:55:32;100611.78;;;9.03;100.00
21504;BME280;10913;51.992;9.228;2024-02-21T03:57:58;100617.09;;;9.09;100.00
21504;BME280;10913;51.992;9.228;2024-02-21T04:00:26;100619.72;;;9.09;100.00
21504;BME280;10913;51.992;9.228;2024-02-21T04:02:58;100629.41;;;9.11;100.00
21504;BME280;10913;51.992;9.228;2024-02-21T04:05:30;100629.41;;;9.11;100.00
21504;BME280;10913;51.992;9.228;2024-02-21T04:07:58;100639.09;;;9.12;100.00
21504;BME280;10913;51.992;9.228;2024-02-21T04:18:09;100654.00;;;9.10;100.00
21504;BME280;10913;51.992;9.228;2024-02-21T04:20:37;100655.78;;;9.13;100.00
21504;BME280;10913;51.992;9.228;2024-02-21T04:23:18;100651.38;;;9.10;100.00
21504;BME280;10913;51.992;9.228;2024-02-21T04:25:43;100638.16;;;9.07;100.00
21504;BME280;10913;51.992;9.228;2024-02-21T04:34:35;100631.16;;;9.09;100.00
21504;BME280;10913;51.992;9.228;2024-02-21T04:37:00;100646.13;;;9.13;100.00
21504;BME280;10913;51.992;9.228;2024-02-21T04:39:50;100649.63;;;9.11;100.00
21504;BME280;10913;51.992;9.228;2024-02-21T04:42:16;100647.84;;;9.08;100.00
21504;BME280;10913;51.992;9.228;2024-02-21T04:44:42;100646.97;;;9.08;100.00
21504;BME280;10913;51.992;9.228;2024-02-21T04:47:10;100646.06;;;9.04;100.00
21504;BME280;10913;51.992;9.228;2024-02-21T04:49:36;100641.66;;;9.02;100.00
21504;BME280;10913;51.992;9.228;2024-02-21T04:52:01;100641.69;;;9.06;100.00
21504;BME280;10913;51.992;9.228;2024-02-21T04:54:29;100638.16;;;9.06;100.00
21504;BME280;10913;51.992;9.228;2024-02-21T04:56:55;100644.28;;;9.03;100.00
21504;BME280;10913;51.992;9.228;2024-02-21T04:59:20;100642.56;;;9.07;100.00
21504;BME280;10913;51.992;9.228;2024-02-21T05:01:46;100642.56;;;9.08;100.00
21504;BME280;10913;51.992;9.228;2024-02-21T05:04:14;100633.78;;;9.08;100.00
21504;BME280;10913;51.992;9.228;2024-02-21T05:06:43;100646.97;;;9.09;100.00
21504;BME280;10913;51.992;9.228;2024-02-21T05:09:13;100639.03;;;9.06;100.00
21504;BME280;10913;51.992;9.228;2024-02-21T05:11:39;100635.53;;;9.07;100.00
21504;BME280;10913;51.992;9.228;2024-02-21T05:14:07;100641.69;;;9.08;100.00
21504;BME280;10913;51.992;9.228;2024-02-21T05:16:35;100646.06;;;9.04;100.00
21504;BME280;10913;51.992;9.228;2024-02-21T05:19:00;100646.09;;;9.10;100.00
21504;BME280;10913;51.992;9.228;2024-02-21T05:21:26;100646.09;;;9.10;100.00
21504;BME280;10913;51.992;9.228;2024-02-21T05:23:53;100644.34;;;9.11;100.00
21504;BME280;10913;51.992;9.228;2024-02-21T05:26:26;100623.25;;;9.09;100.00
21504;BME280;10913;51.992;9.228;2024-02-21T05:28:52;100630.28;;;9.09;100.00
21504;BME280;10913;51.992;9.228;2024-02-21T05:31:25;100625.84;;;9.05;100.00
21504;BME280;10913;51.992;9.228;2024-02-21T05:33:56;100621.47;;;9.05;100.00
21504;BME280;10913;51.992;9.228;2024-02-21T05:36:25;100615.31;;;9.03;100.00
21504;BME280;10913;51.992;9.228;2024-02-21T05:38:53;100630.22;;;9.01;100.00
21504;BME280;10913;51.992;9.228;2024-02-21T05:41:19;100634.63;;;8.99;100.00
21504;BME280;10913;51.992;9.228;2024-02-21T05:43:44;100628.47;;;8.97;100.00
21504;BME280;10913;51.992;9.228;2024-02-21T05:46:09;100637.28;;;8.99;100.00
21504;BME280;10913;51.992;9.228;2024-02-21T05:48:35;100638.13;;;8.98;100.00
21504;BME280;10913;51.992;9.228;2024-02-21T05:51:02;100617.94;;;8.98;100.00
21504;BME280;10913;51.992;9.228;2024-02-21T05:53:28;100601.22;;;8.95;100.00
21504;BME280;10913;51.992;9.228;2024-02-21T05:55:54;100608.25;;;8.94;100.00
21504;BME280;10913;51.992;9.228;2024-02-21T05:58:19;100617.03;;;8.93;100.00
21504;BME280;10913;51.992;9.228;2024-02-21T06:00:47;100616.13;;;8.90;100.00
21504;BME280;10913;51.992;9.228;2024-02-21T06:03:19;100602.09;;;8.91;100.00
21504;BME280;10913;51.992;9.228;2024-02-21T06:05:44;100613.50;;;8.91;100.00
21504;BME280;10913;51.992;9.228;2024-02-21T06:08:10;100610.84;;;8.88;100.00
21504;BME280;10913;51.992;9.228;2024-02-21T06:10:35;100602.97;;;8.90;100.00
21504;BME280;10913;51.992;9.228;2024-02-21T06:13:03;100602.97;;;8.93;100.00
21504;BME280;10913;51.992;9.228;2024-02-21T06:15:36;100591.53;;;8.91;100.00
21504;BME280;10913;51.992;9.228;2024-02-21T06:18:02;100593.28;;;8.89;100.00
21504;BME280;10913;51.992;9.228;2024-02-21T06:20:36;100588.88;;;8.86;100.00
21504;BME280;10913;51.992;9.228;2024-02-21T06:23:06;100591.50;;;8.83;100.00
21504;BME280;10913;51.992;9.228;2024-02-21T06:25:31;100592.38;;;8.78;100.00
21504;BME280;10913;51.992;9.228;2024-02-21T06:28:00;100592.34;;;8.81;100.00
21504;BME280;10913;51.992;9.228;2024-02-21T06:30:28;100587.09;;;8.84;100.00
21504;BME280;10913;51.992;9.228;2024-02-21T06:32:53;100584.47;;;8.85;100.00
21504;BME280;10913;51.992;9.228;2024-02-21T06:35:27;100590.59;;;8.81;100.00
21504;BME280;10913;51.992;9.228;2024-02-21T06:37:55;100581.81;;;8.82;100.00
21504;BME280;10913;51.992;9.228;2024-02-21T06:40:22;100579.19;;;8.81;100.00
21504;BME280;10913;51.992;9.228;2024-02-21T06:43:06;100579.19;;;8.81;100.00
21504;BME280;10913;51.992;9.228;2024-02-21T06:45:39;100586.22;;;8.82;100.00
21504;BME280;10913;51.992;9.228;2024-02-21T06:48:04;100589.72;;;8.82;100.00
21504;BME280;10913;51.992;9.228;2024-02-21T06:50:30;100583.56;;;8.80;100.00
21504;BME280;10913;51.992;9.228;2024-02-21T06:52:55;100588.88;;;8.79;100.00
21504;BME280;10913;51.992;9.228;2024-02-21T06:55:23;100593.22;;;8.80;100.00
21504;BME280;10913;51.992;9.228;2024-02-21T06:57:56;100580.06;;;8.78;100.00
21504;BME280;10913;51.992;9.228;2024-02-21T07:00:24;100576.56;;;8.78;100.00
21504;BME280;10913;51.992;9.228;2024-02-21T07:03:03;100563.38;;;8.78;100.00
21504;BME280;10913;51.992;9.228;2024-02-21T07:05:28;100554.59;;;8.76;100.00
21504;BME280;10913;51.992;9.228;2024-02-21T07:07:59;100548.44;;;8.75;100.00
21504;BME280;10913;51.992;9.228;2024-02-21T07:10:24;100540.53;;;8.75;100.00
21504;BME280;10913;51.992;9.228;2024-02-21T07:12:56;100547.56;;;8.76;100.00
21504;BME280;10913;51.992;9.228;2024-02-21T07:15:27;100537.03;;;8.76;100.00
21504;BME280;10913;51.992;9.228;2024-02-21T07:17:53;100540.56;;;8.77;100.00
21504;BME280;10913;51.992;9.228;2024-02-21T07:20:19;100533.53;;;8.79;100.00
21504;BME280;10913;51.992;9.228;2024-02-21T07:22:56;100537.91;;;8.81;100.00
21504;BME280;10913;51.992;9.228;2024-02-21T07:25:30;100552.84;;;8.81;100.00
21504;BME280;10913;51.992;9.228;2024-02-21T07:27:57;100553.75;;;8.84;100.00
21504;BME280;10913;51.992;9.228;2024-02-21T07:30:30;100552.88;;;8.87;100.00
21504;BME280;10913;51.992;9.228;2024-02-21T07:54:29;100557.34;;;9.09;100.00
21504;BME280;10913;51.992;9.228;2024-02-21T07:57:10;100560.88;;;9.11;100.00
21504;BME280;10913;51.992;9.228;2024-02-21T10:11:01;100433.25;;;11.90;81.58
21504;BME280;10913;51.992;9.228;2024-02-21T10:13:30;100417.31;;;11.94;81.28
21504;BME280;10913;51.992;9.228;2024-02-21T10:16:06;100426.91;;;12.04;80.39
21504;BME280;10913;51.992;9.228;2024-02-21T10:44:25;100382.75;;;12.74;75.84
21504;BME280;10913;51.992;9.228;2024-02-21T10:46:59;100379.09;;;12.81;75.00
21504;BME280;10913;51.992;9.228;2024-02-21T10:49:29;100370.16;;;12.90;74.22
21504;BME280;10913;51.992;9.228;2024-02-21T10:52:14;100366.44;;;13.01;73.34
21504;BME280;10913;51.992;9.228;2024-02-21T10:54:56;100370.03;;;12.99;72.45
21504;BME280;10913;51.992;9.228;2024-02-21T10:57:33;100366.38;;;13.04;73.03
21504;BME280;10913;51.992;9.228;2024-02-21T11:00:00;100364.38;;;13.20;74.44
21504;BME280;10913;51.992;9.228;2024-02-21T11:02:28;100358.25;;;13.18;73.08
21504;BME280;10913;51.992;9.228;2024-02-21T11:04:59;100376.88;;;13.15;72.88
21504;BME280;10913;51.992;9.228;2024-02-21T11:07:26;100342.56;;;13.00;72.52
21504;BME280;10913;51.992;9.228;2024-02-21T11:09:53;100348.28;;;12.75;73.08
21504;BME280;10913;51.992;9.228;2024-02-21T11:12:21;100338.47;;;12.81;74.20
21504;BME280;10913;51.992;9.228;2024-02-21T11:14:47;100326.97;;;12.80;74.13
21504;BME280;10913;51.992;9.228;2024-02-21T11:17:16;100329.09;;;12.58;73.79
21504;BME280;10913;51.992;9.228;2024-02-21T11:19:42;100325.47;;;12.62;74.98
21504;BME280;10913;51.992;9.228;2024-02-21T11:22:17;100328.75;;;12.80;76.04
21504;BME280;10913;51.992;9.228;2024-02-21T11:24:43;100309.47;;;12.71;74.98
21504;BME280;10913;51.992;9.228;2024-02-21T11:27:22;100309.31;;;12.79;74.56
21504;BME280;10913;51.992;9.228;2024-02-21T11:29:57;100298.69;;;12.81;75.89
21504;BME280;10913;51.992;9.228;2024-02-21T11:32:25;100306.63;;;12.82;75.60
21504;BME280;10913;51.992;9.228;2024-02-21T11:34:58;100304.19;;;12.68;74.66
21504;BME280;10913;51.992;9.228;2024-02-21T11:37:29;100302.81;;;12.43;75.25
21504;BME280;10913;51.992;9.228;2024-02-21T11:39:55;100295.84;;;12.36;75.92
21504;BME280;10913;51.992;9.228;2024-02-21T11:42:21;100293.13;;;12.40;76.84
21504;BME280;10913;51.992;9.228;2024-02-21T11:44:46;100293.94;;;12.44;77.20
21504;BME280;10913;51.992;9.228;2024-02-21T11:47:15;100288.81;;;12.35;75.88
21504;BME280;10913;51.992;9.228;2024-02-21T11:49:46;100274.59;;;12.39;76.56
21504;BME280;10913;51.992;9.228;2024-02-21T11:52:17;100259.66;;;12.36;75.67
21504;BME280;10913;51.992;9.228;2024-02-21T11:54:44;100253.22;;;12.51;77.03
21504;BME280;10913;51.992;9.228;2024-02-21T11:57:10;100252.94;;;12.69;76.77
21504;BME280;10913;51.992;9.228;2024-02-21T11:59:36;100235.16;;;12.76;75.11
21504;BME280;10913;51.992;9.228;2024-02-21T12:02:03;100233.06;;;12.95;75.25
21504;BME280;10913;51.992;9.228;2024-02-21T12:04:31;100223.25;;;13.00;73.79
21504;BME280;10913;51.992;9.228;2024-02-21T12:06:58;100231.09;;;13.06;74.04
21504;BME280;10913;51.992;9.228;2024-02-21T12:09:24;100224.91;;;13.05;73.47
21504;BME280;10913;51.992;9.228;2024-02-21T12:12:04;100220.59;;;13.00;73.17
21504;BME280;10913;51.992;9.228;2024-02-21T12:14:31;100217.94;;;13.00;73.24
21504;BME280;10913;51.992;9.228;2024-02-21T12:16:57;100215.47;;;12.91;72.65
21504;BME280;10913;51.992;9.228;2024-02-21T12:19:22;100197.81;;;12.90;73.79
21504;BME280;10913;51.992;9.228;2024-02-21T12:21:49;100203.25;;;12.81;73.33
21504;BME280;10913;51.992;9.228;2024-02-21T12:24:25;100199.81;;;12.77;74.18
21504;BME280;10913;51.992;9.228;2024-02-21T12:26:54;100186.75;;;12.65;73.69
21504;BME280;10913;51.992;9.228;2024-02-21T12:29:20;100192.13;;;12.60;73.35
21504;BME280;10913;51.992;9.228;2024-02-21T12:31:46;100196.63;;;12.55;73.93
21504;BME280;10913;51.992;9.228;2024-02-21T12:34:11;100174.31;;;12.68;74.11
21504;BME280;10913;51.992;9.228;2024-02-21T12:36:58;100170.88;;;12.62;74.90
21504;BME280;10913;51.992;9.228;2024-02-21T12:39:33;100180.63;;;12.60;74.63
21504;BME280;10913;51.992;9.228;2024-02-21T12:41:58;100178.13;;;12.54;74.44
21504;BME280;10913;51.992;9.228;2024-02-21T12:44:24;100182.66;;;12.44;74.28
21504;BME280;10913;51.992;9.228;2024-02-21T12:47:01;100170.41;;;12.38;75.11
21504;BME280;10913;51.992;9.228;2024-02-21T12:49:27;100174.06;;;12.30;74.92
21504;BME280;10913;51.992;9.228;2024-02-21T12:51:55;100175.78;;;12.34;75.33
21504;BME280;10913;51.992;9.228;2024-02-21T12:54:20;100176.53;;;12.40;76.27
21504;BME280;10913;51.992;9.228;2024-02-21T12:56:46;100158.16;;;12.33;75.15
21504;BME280;10913;51.992;9.228;2024-02-21T12:59:11;100156.22;;;12.41;75.94
21504;BME280;10913;51.992;9.228;2024-02-21T13:01:43;100149.16;;;12.40;76.36
21504;BME280;10913;51.992;9.228;2024-02-21T13:04:08;100137.09;;;12.24;76.23
21504;BME280;10913;51.992;9.228;2024-02-21T13:06:34;100124.66;;;12.29;76.70
21504;BME280;10913;51.992;9.228;2024-02-21T13:09:00;100130.97;;;12.20;76.19
21504;BME280;10913;51.992;9.228;2024-02-21T13:11:29;100134.56;;;12.18;77.23
21504;BME280;10913;51.992;9.228;2024-02-21T13:13:56;100139.88;;;12.16;77.05
21504;BME280;10913;51.992;9.228;2024-02-21T13:16:21;100128.41;;;12.16;77.11
21504;BME280;10913;51.992;9.228;2024-02-21T13:18:47;100120.53;;;12.11;77.93
21504;BME280;10913;51.992;9.228;2024-02-21T13:21:13;100110.75;;;12.15;77.81
21504;BME280;10913;51.992;9.228;2024-02-21T13:23:40;100094.69;;;12.24;78.64
21504;BME280;10913;51.992;9.228;2024-02-21T13:26:05;100072.69;;;12.20;78.79
21504;BME280;10913;51.992;9.228;2024-02-21T13:28:34;100062.19;;;12.16;78.81
21504;BME280;10913;51.992;9.228;2024-02-21T13:30:59;100057.84;;;12.12;79.15
21504;BME280;10913;51.992;9.228;2024-02-21T13:33:28;100048.19;;;12.07;79.47
21504;BME280;10913;51.992;9.228;2024-02-21T13:35:57;100057.09;;;12.02;80.07
21504;BME280;10913;51.992;9.228;2024-02-21T13:38:22;100060.59;;;12.04;80.37
21504;BME280;10913;51.992;9.228;2024-02-21T13:40:49;100073.91;;;12.01;80.21
21504;BME280;10913;51.992;9.228;2024-02-21T13:43:25;100081.91;;;11.98;81.08
21504;BME280;10913;51.992;9.228;2024-02-21T13:46:03;100093.38;;;11.98;81.66
21504;BME280;10913;51.992;9.228;2024-02-21T13:48:36;100049.44;;;11.85;81.66
21504;BME280;10913;51.992;9.228;2024-02-21T13:51:02;100026.66;;;11.78;82.22
21504;BME280;10913;51.992;9.228;2024-02-21T13:53:28;99994.03;;;11.73;82.49
21504;BME280;10913;51.992;9.228;2024-02-21T13:55:53;99981.59;;;11.80;82.55
21504;BME280;10913;51.992;9.228;2024-02-21T13:58:19;99982.47;;;11.80;83.18
21504;BME280;10913;51.992;9.228;2024-02-21T14:00:47;99959.59;;;11.78;84.02
21504;BME280;10913;51.992;9.228;2024-02-21T14:03:15;99945.66;;;11.65;84.06
21504;BME280;10913;51.992;9.228;2024-02-21T14:05:45;99958.25;;;11.51;85.19
21504;BME280;10913;51.992;9.228;2024-02-21T14:08:13;99952.16;;;11.44;85.89
21504;BME280;10913;51.992;9.228;2024-02-21T14:10:39;99941.66;;;11.39;86.62
21504;BME280;10913;51.992;9.228;2024-02-21T14:13:05;99934.72;;;11.34;86.28
21504;BME280;10913;51.992;9.228;2024-02-21T14:15:36;99951.53;;;11.28;86.78
21504;BME280;10913;51.992;9.228;2024-02-21T14:18:09;99932.25;;;11.20;87.38
21504;BME280;10913;51.992;9.228;2024-02-21T14:20:39;99923.59;;;11.12;88.03
21504;BME280;10913;51.992;9.228;2024-02-21T14:23:04;99906.03;;;11.07;88.05
21504;BME280;10913;51.992;9.228;2024-02-21T14:25:38;99897.41;;;10.97;88.55
21504;BME280;10913;51.992;9.228;2024-02-21T14:28:04;99894.88;;;10.86;88.83
21504;BME280;10913;51.992;9.228;2024-02-21T14:30:31;99905.44;;;10.88;89.06
21504;BME280;10913;51.992;9.228;2024-02-21T14:32:56;99932.03;;;10.77;88.82
21504;BME280;10913;51.992;9.228;2024-02-21T14:35:22;99899.44;;;10.77;88.95
21504;BME280;10913;51.992;9.228;2024-02-21T14:37:53;99900.34;;;10.76;88.75
21504;BME280;10913;51.992;9.228;2024-02-21T14:40:22;99878.44;;;10.67;88.97
21504;BME280;10913;51.992;9.228;2024-02-21T14:42:48;99862.66;;;10.61;89.24
21504;BME280;10913;51.992;9.228;2024-02-21T14:45:15;99855.63;;;10.60;89.42
21504;BME280;10913;51.992;9.228;2024-02-21T14:47:40;99844.19;;;10.60;89.37
21504;BME280;10913;51.992;9.228;2024-02-21T14:50:09;99840.63;;;10.61;88.15
21504;BME280;10913;51.992;9.228;2024-02-21T14:52:35;99846.81;;;10.60;88.97
21504;BME280;10913;51.992;9.228;2024-02-21T14:55:01;99855.69;;;10.57;87.94
21504;BME280;10913;51.992;9.228;2024-02-21T14:57:28;99860.09;;;10.57;88.04
21504;BME280;10913;51.992;9.228;2024-02-21T15:00:07;99857.31;;;10.64;87.56
21504;BME280;10913;51.992;9.228;2024-02-21T15:02:33;99849.47;;;10.60;86.49
21504;BME280;10913;51.992;9.228;2024-02-21T15:05:00;99838.03;;;10.59;86.00
21504;BME280;10913;51.992;9.228;2024-02-21T15:07:26;99818.63;;;10.60;85.84
21504;BME280;10913;51.992;9.228;2024-02-21T15:09:53;99816.88;;;10.59;85.56
21504;BME280;10913;51.992;9.228;2024-02-21T15:12:19;99795.75;;;10.59;85.28
21504;BME280;10913;51.992;9.228;2024-02-21T15:14:44;99820.38;;;10.61;85.34
21504;BME280;10913;51.992;9.228;2024-02-21T15:17:12;99792.13;;;10.66;85.29
21504;BME280;10913;51.992;9.228;2024-02-21T15:19:38;99785.09;;;10.65;84.81
21504;BME280;10913;51.992;9.228;2024-02-21T15:22:07;99781.50;;;10.71;84.89
21504;BME280;10913;51.992;9.228;2024-02-21T15:24:32;99779.75;;;10.70;85.32
21504;BME280;10913;51.992;9.228;2024-02-21T15:26:57;99783.41;;;10.61;84.88
21504;BME280;10913;51.992;9.228;2024-02-21T15:29:23;99787.00;;;10.59;84.76
21504;BME280;10913;51.992;9.228;2024-02-21T15:31:52;99773.91;;;10.50;85.25
21504;BME280;10913;51.992;9.228;2024-02-21T15:34:17;99751.81;;;10.55;85.20
21504;BME280;10913;51.992;9.228;2024-02-21T15:36:43;99763.31;;;10.51;85.21
21504;BME280;10913;51.992;9.228;2024-02-21T15:39:08;99769.47;;;10.53;84.79
21504;BME280;10913;51.992;9.228;2024-02-21T15:41:36;99766.00;;;10.48;84.41
21504;BME280;10913;51.992;9.228;2024-02-21T15:44:07;99739.69;;;10.42;84.41
21504;BME280;10913;51.992;9.228;2024-02-21T15:46:32;99739.75;;;10.39;84.53
21504;BME280;10913;51.992;9.228;2024-02-21T15:49:01;99741.53;;;10.37;84.47
21504;BME280;10913;51.992;9.228;2024-02-21T15:51:26;99746.88;;;10.34;84.92
21504;BME280;10913;51.992;9.228;2024-02-21T15:53:52;99758.31;;;10.34;84.78
21504;BME280;10913;51.992;9.228;2024-02-21T15:56:17;99733.75;;;10.26;84.26
21504;BME280;10913;51.992;9.228;2024-02-21T15:58:43;99721.47;;;10.24;84.46
21504;BME280;10913;51.992;9.228;2024-02-21T16:01:08;99704.78;;;10.22;85.01
21504;BME280;10913;51.992;9.228;2024-02-21T16:03:37;99710.13;;;10.19;84.86
21504;BME280;10913;51.992;9.228;2024-02-21T16:06:02;99704.88;;;10.16;83.93
21504;BME280;10913;51.992;9.228;2024-02-21T16:08:40;99701.44;;;10.09;83.93
21504;BME280;10913;51.992;9.228;2024-02-21T16:11:13;99708.50;;;10.06;83.33
21504;BME280;10913;51.992;9.228;2024-02-21T16:13:42;99693.56;;;10.05;83.80
21504;BME280;10913;51.992;9.228;2024-02-21T16:16:11;99712.97;;;10.02;84.33
21504;BME280;10913;51.992;9.228;2024-02-21T16:18:36;99712.16;;;9.98;83.51
21504;BME280;10913;51.992;9.228;2024-02-21T16:21:01;99696.34;;;9.95;83.22